Time;durP1;ratioP1;P1;durP2;ratioP2;P2;SDS_P1;SDS_P2;PMS_P1;PMS_P2;Temp;Humidity;BMP_temperature;BMP_pressure;BME280_temperature;BME280_humidity;BME280_pressure;Samples;Min_cycle;Max_cycle;Signal;HPM_P1;HPM_P2
2022/01/22 00:00:39;;;;;;;0.37;0.37;;;;;;;4.87;100.00;101532.66;5072999;28;20292;-73
2022/01/22 00:03:04;;;;;;;0.60;0.50;;;;;;;4.86;100.00;101512.06;5072992;28;20178;-73
2022/01/22 00:05:30;;;;;;;0.67;0.67;;;;;;;4.85;100.00;101521.25;5074092;28;20183;-73
2022/01/22 00:07:55;;;;;;;0.37;0.37;;;;;;;4.86;100.00;101517.47;5074254;28;20237;-74
2022/01/22 00:10:23;;;;;;;1.30;1.23;;;;;;;4.83;100.00;101529.63;5074312;28;20296;-74
2022/01/22 00:15:16;;;;;;;1.03;1.03;;;;;;;4.84;100.00;101535.84;5074372;28;20170;-75
2022/01/22 00:17:41;;;;;;;0.77;0.67;;;;;;;4.86;100.00;101537.25;5072952;28;20205;-74
2022/01/22 00:20:08;;;;;;;1.33;1.17;;;;;;;4.85;100.00;101532.91;5074056;28;20556;-73
2022/01/22 00:22:36;;;;;;;0.70;0.70;;;;;;;4.87;100.00;101529.94;5072574;28;20178;-74
2022/01/22 00:25:02;;;;;;;0.60;0.30;;;;;;;4.87;100.00;101516.41;5072500;28;20186;-74
2022/01/22 00:27:28;;;;;;;0.80;0.70;;;;;;;4.88;100.00;101515.34;5073839;28;20652;-74
2022/01/22 00:29:55;;;;;;;1.07;0.97;;;;;;;4.87;100.00;101514.50;5072621;28;20181;-74
2022/01/22 00:32:20;;;;;;;0.50;0.43;;;;;;;4.90;100.00;101515.91;5073823;28;20202;-74
2022/01/22 00:34:46;;;;;;;1.90;0.90;;;;;;;4.89;100.00;101503.44;5073343;28;20193;-74
2022/01/22 00:37:12;;;;;;;1.60;0.60;;;;;;;4.88;100.00;101502.63;5073819;28;20175;-74
2022/01/22 00:39:37;;;;;;;0.57;0.37;;;;;;;4.89;100.00;101506.13;5072432;28;20193;-74
2022/01/22 00:42:12;;;;;;;0.60;0.60;;;;;;;4.88;100.00;101494.50;5071095;28;20277;-74
2022/01/22 00:44:38;;;;;;;1.50;1.40;;;;;;;4.89;100.00;101504.25;5078078;28;20303;-74
2022/01/22 00:47:04;;;;;;;0.73;0.60;;;;;;;4.94;100.00;101517.06;5088611;28;20213;-74
2022/01/22 00:49:30;;;;;;;0.63;0.40;;;;;;;4.94;100.00;101517.06;5081368;28;20182;-73
2022/01/22 00:51:56;;;;;;;3.40;0.60;;;;;;;4.93;100.00;101505.41;5073335;28;20248;-73
2022/01/22 00:54:22;;;;;;;0.40;0.40;;;;;;;4.93;100.00;101523.56;5073320;28;20273;-74
2022/01/22 00:56:48;;;;;;;1.10;0.70;;;;;;;4.93;100.00;101518.97;5073271;28;20186;-74
2022/01/22 00:59:14;;;;;;;0.30;0.30;;;;;;;4.93;100.00;101523.56;5073288;28;20269;-73
2022/01/22 01:01:39;;;;;;;0.47;0.47;;;;;;;4.92;100.00;101533.56;5072973;28;20638;-74
2022/01/22 01:04:07;;;;;;;0.93;0.90;;;;;;;4.91;100.00;101525.66;5071573;28;20181;-73
2022/01/22 01:06:33;;;;;;;0.40;0.40;;;;;;;4.94;100.00;101527.91;5071987;28;20197;-74
2022/01/22 01:09:00;;;;;;;0.47;0.47;;;;;;;4.93;100.00;101534.38;5073255;28;20249;-74
2022/01/22 01:11:27;;;;;;;0.50;0.50;;;;;;;4.91;100.00;101523.78;5073131;28;20206;-74
2022/01/22 01:13:57;;;;;;;0.40;0.40;;;;;;;4.93;100.00;101524.38;5071779;28;20178;-74
2022/01/22 01:35:15;;;;;;;0.63;0.63;;;;;;;4.84;100.00;101536.69;5072994;28;20166;-73
2022/01/22 01:37:42;;;;;;;0.50;0.40;;;;;;;4.83;100.00;101526.91;5072716;28;20166;-73
2022/01/22 01:40:09;;;;;;;2.83;0.70;;;;;;;4.84;100.00;101528.56;5072649;28;20248;-74
2022/01/22 01:45:06;;;;;;;0.63;0.40;;;;;;;4.85;100.00;101527.47;5072335;28;20553;-74
2022/01/22 01:47:33;;;;;;;0.20;0.20;;;;;;;4.88;100.00;101528.88;5071234;28;20175;-73
2022/01/22 01:49:58;;;;;;;0.67;0.47;;;;;;;4.86;100.00;101529.13;5072411;28;20206;-73
2022/01/22 01:52:35;;;;;;;0.20;0.20;;;;;;;4.88;100.00;101526.16;5071155;28;20693;-73
2022/01/22 01:55:08;;;;;;;0.37;0.20;;;;;;;4.85;100.00;101523.97;5072221;28;20177;-73
2022/01/22 01:57:40;;;;;;;0.50;0.50;;;;;;;4.88;100.00;101526.16;5072266;28;20167;-74
2022/01/22 02:00:26;;;;;;;0.23;0.23;;;;;;;4.90;100.00;101521.31;5072139;28;20171;-74
2022/01/22 02:02:53;;;;;;;0.10;0.10;;;;;;;4.91;100.00;101522.97;5071985;28;20178;-73
2022/01/22 02:05:21;;;;;;;0.00;0.00;;;;;;;4.92;100.00;101522.75;5070855;28;20215;-74
2022/01/22 02:07:47;;;;;;;0.27;0.20;;;;;;;4.93;100.00;101518.13;5072045;28;20178;-74
2022/01/22 02:10:20;;;;;;;0.43;0.40;;;;;;;4.91;100.00;101525.66;5072326;28;20582;-74
2022/01/22 02:23:45;;;;;;;0.73;0.43;;;;;;;4.90;100.00;101535.69;5071898;28;20204;-74
2022/01/22 02:26:12;;;;;;;0.30;0.30;;;;;;;4.90;100.00;101515.91;5071725;28;20163;-74
2022/01/22 02:28:38;;;;;;;1.03;0.40;;;;;;;4.90;100.00;101540.28;5071512;28;20166;-73
2022/01/22 02:31:13;;;;;;;0.47;0.47;;;;;;;4.90;100.00;101565.47;5070139;28;20261;-74
2022/01/22 02:33:51;;;;;;;0.40;0.40;;;;;;;4.89;100.00;101536.75;5071744;28;20174;-75
2022/01/22 02:36:30;;;;;;;0.20;0.13;;;;;;;4.90;100.00;101532.16;5070332;28;20174;-73
2022/01/22 02:41:24;;;;;;;1.30;0.50;;;;;;;4.93;100.00;101537.09;5071791;28;20650;-74
2022/01/22 02:43:52;;;;;;;0.73;0.70;;;;;;;4.94;100.00;101544.97;5071448;28;20174;-74
2022/01/22 02:46:19;;;;;;;0.40;0.40;;;;;;;4.94;100.00;101538.72;5071220;28;20188;-74
2022/01/22 02:48:45;;;;;;;0.10;0.10;;;;;;;4.95;100.00;101551.22;5071448;28;20167;-74
2022/01/22 02:51:10;;;;;;;0.70;0.70;;;;;;;4.94;100.00;101560.41;5069943;28;20177;-74
2022/01/22 02:53:36;;;;;;;3.50;0.70;;;;;;;4.93;100.00;101550.63;5071169;28;20210;-75
2022/01/22 02:56:01;;;;;;;0.70;0.40;;;;;;;4.94;100.00;101549.56;5070599;28;20171;-74
2022/01/22 02:58:27;;;;;;;0.50;0.50;;;;;;;4.93;100.00;101554.16;5069755;28;20627;-74
2022/01/22 03:00:53;;;;;;;0.77;0.57;;;;;;;4.94;100.00;101549.56;5069447;28;20170;-73
2022/01/22 03:03:18;;;;;;;1.50;0.70;;;;;;;4.94;100.00;101558.50;5071106;28;20202;-74
2022/01/22 03:05:43;;;;;;;1.10;1.00;;;;;;;4.95;100.00;101553.91;5069403;28;20198;-74
2022/01/22 03:08:10;;;;;;;0.97;0.87;;;;;;;4.94;100.00;101557.69;5071024;28;20177;-74
2022/01/22 03:10:37;;;;;;;0.33;0.33;;;;;;;4.94;100.00;101550.38;5070947;28;20193;-74
2022/01/22 03:13:21;;;;;;;1.10;1.00;;;;;;;4.93;100.00;101559.56;5069617;28;20255;-74
2022/01/22 03:18:21;;;;;;;0.17;0.17;;;;;;;4.95;100.00;101570.16;5070677;28;20178;-73
2022/01/22 03:28:59;;;;;;;0.67;0.67;;;;;;;4.97;100.00;101560.72;5069748;28;20224;-74
2022/01/22 03:31:25;;;;;;;1.10;1.10;;;;;;;4.98;100.00;101561.53;5070828;28;20166;-74
2022/01/22 03:33:50;;;;;;;1.97;1.77;;;;;;;4.97;100.00;101574.25;5069384;28;20611;-74
2022/01/22 03:36:16;;;;;;;0.90;0.87;;;;;;;5.00;100.00;101576.47;5069092;28;20618;-74
2022/01/22 03:38:42;;;;;;;0.77;0.77;;;;;;;4.99;100.00;101576.72;5070274;28;20179;-73
2022/01/22 03:41:07;;;;;;;1.03;0.93;;;;;;;4.99;100.00;101584.84;5070245;28;20170;-74
2022/01/22 03:43:33;;;;;;;2.20;1.80;;;;;;;4.97;100.00;101585.09;5070452;28;20209;-74
2022/01/22 03:45:58;;;;;;;2.10;1.20;;;;;;;4.98;100.00;101585.91;5070240;28;20265;-74
2022/01/22 03:48:23;;;;;;;1.07;0.73;;;;;;;4.98;100.00;101585.91;5070458;28;20174;-74
2022/01/22 03:50:49;;;;;;;1.57;1.07;;;;;;;4.97;100.00;101570.72;5070750;28;20179;-75
2022/01/22 03:53:15;;;;;;;0.47;0.47;;;;;;;4.95;100.00;101583.69;5070362;28;20230;-74
2022/01/22 03:58:19;;;;;;;1.33;1.17;;;;;;;4.95;100.00;101600.75;5070775;28;20169;-74
2022/01/22 04:00:45;;;;;;;1.10;0.97;;;;;;;4.96;100.00;101604.28;5068691;28;20202;-74
2022/01/22 04:03:33;;;;;;;0.90;0.90;;;;;;;4.95;100.00;101610.78;5070273;28;20183;-74
2022/01/22 04:08:42;;;;;;;1.70;1.60;;;;;;;4.96;100.00;101615.94;5070308;28;20702;-74
2022/01/22 04:11:13;;;;;;;1.00;0.90;;;;;;;4.96;100.00;101602.41;5070372;28;20204;-74
2022/01/22 04:13:39;;;;;;;1.97;1.63;;;;;;;4.96;100.00;101588.88;5070316;28;20178;-74
2022/01/22 04:16:05;;;;;;;0.57;0.57;;;;;;;4.97;100.00;101595.09;5068751;28;20175;-74
2022/01/22 04:26:53;;;;;;;2.80;1.77;;;;;;;4.98;100.00;101594.03;5070078;28;20561;-74
2022/01/22 04:29:27;;;;;;;1.40;1.30;;;;;;;4.99;100.00;101603.78;5070019;28;20170;-73
2022/01/22 04:31:53;;;;;;;1.03;0.93;;;;;;;4.97;100.00;101595.91;5069975;28;20190;-74
2022/01/22 04:34:19;;;;;;;2.03;1.63;;;;;;;4.98;100.00;101596.75;5068828;28;20549;-74
2022/01/22 04:36:45;;;;;;;1.87;1.63;;;;;;;5.00;100.00;101597.31;5068814;28;20198;-73
2022/01/22 04:39:11;;;;;;;2.43;1.47;;;;;;;5.00;100.00;101594.59;5070413;28;20220;-74
2022/01/22 04:41:37;;;;;;;1.27;0.77;;;;;;;4.99;100.00;101592.97;5073729;28;20611;-74
2022/01/22 04:44:04;;;;;;;2.43;1.87;;;;;;;4.98;100.00;101599.44;5076132;28;20225;-74
2022/01/22 04:57:05;;;;;;;1.13;0.80;;;;;;;5.00;100.00;101618.97;5073839;28;20645;-73
2022/01/22 04:59:30;;;;;;;0.00;0.00;;;;;;;5.00;100.00;101625.22;5081447;28;20202;-74
2022/01/22 05:01:57;;;;;;;0.60;0.60;;;;;;;5.01;100.00;101628.75;5073222;28;20182;-74
2022/01/22 05:04:22;;;;;;;1.30;1.17;;;;;;;5.01;100.00;101624.16;5073325;28;20639;-74
2022/01/22 05:06:47;;;;;;;0.70;0.50;;;;;;;5.03;100.00;101616.59;5073290;28;20183;-73
2022/01/22 05:09:13;;;;;;;1.83;1.67;;;;;;;5.05;100.00;101627.19;5073355;28;20175;-74
2022/01/22 05:11:38;;;;;;;2.53;1.70;;;;;;;5.06;100.00;101631.53;5073665;28;20203;-74
2022/01/22 05:14:04;;;;;;;1.57;0.97;;;;;;;5.05;100.00;101628.00;5073460;28;20178;-74
2022/01/22 05:16:29;;;;;;;1.07;0.77;;;;;;;5.06;100.00;101631.53;5073062;28;20175;-73
2022/01/22 05:19:00;;;;;;;1.50;1.13;;;;;;;5.06;100.00;101640.50;5073068;28;20181;-73
2022/01/22 05:21:28;;;;;;;2.37;1.13;;;;;;;5.06;100.00;101636.94;5073193;28;20186;-74
2022/01/22 05:23:56;;;;;;;1.73;1.57;;;;;;;5.06;100.00;101631.53;5073080;28;20179;-74
2022/01/22 05:29:29;;;;;;;1.97;0.87;;;;;;;5.06;100.00;101639.66;5073172;28;20167;-74
2022/01/22 05:37:22;;;;;;;2.20;1.20;;;;;;;5.04;100.00;101650.72;5073007;28;20525;-74
2022/01/22 05:39:49;;;;;;;2.33;1.17;;;;;;;5.05;100.00;101646.13;5072791;28;20178;-74
2022/01/22 05:42:14;;;;;;;1.37;1.27;;;;;;;5.04;100.00;101663.47;5071368;28;20189;-74
2022/01/22 05:44:41;;;;;;;2.23;1.70;;;;;;;5.06;100.00;101647.78;5072530;28;20174;-74
2022/01/22 05:47:06;;;;;;;3.87;1.50;;;;;;;5.08;100.00;101661.91;5072497;28;20167;-73
2022/01/22 05:49:36;;;;;;;1.87;1.57;;;;;;;5.08;100.00;101656.50;5072321;28;20312;-74
2022/01/22 05:52:04;;;;;;;1.63;1.40;;;;;;;5.10;100.00;101665.19;5071636;28;20681;-74
2022/01/22 05:59:40;;;;;;;2.97;1.67;;;;;;;5.13;100.00;101682.84;5072249;28;20181;-73
2022/01/22 06:02:11;;;;;;;4.97;2.00;;;;;;;5.14;100.00;101687.19;5072068;28;20178;-74
2022/01/22 06:04:36;;;;;;;2.03;1.27;;;;;;;5.13;100.00;101682.84;5071928;28;20228;-74
2022/01/22 06:07:04;;;;;;;1.23;0.77;;;;;;;5.12;100.00;101682.03;5072047;28;20213;-74
2022/01/22 06:09:31;;;;;;;1.70;1.37;;;;;;;5.12;100.00;101687.44;5072041;28;20175;-73
2022/01/22 06:14:32;;;;;;;1.30;1.20;;;;;;;5.15;100.00;101689.66;5072326;28;20180;-74
2022/01/22 06:16:57;;;;;;;0.63;0.57;;;;;;;5.15;100.00;101700.50;5071924;28;20178;-74
2022/01/22 06:19:23;;;;;;;1.23;1.07;;;;;;;5.14;100.00;101701.56;5070629;28;20175;-74
2022/01/22 06:21:51;;;;;;;2.10;1.10;;;;;;;5.17;100.00;101703.78;5071870;28;20496;-74
2022/01/22 06:24:17;;;;;;;1.70;1.20;;;;;;;5.17;100.00;101709.19;5071582;28;20179;-74
2022/01/22 06:26:42;;;;;;;1.93;1.07;;;;;;;5.19;100.00;101715.19;5070289;28;20171;-74
2022/01/22 06:29:08;;;;;;;1.27;1.00;;;;;;;5.16;100.00;101706.72;5070393;28;20227;-74
2022/01/22 06:31:34;;;;;;;1.47;1.00;;;;;;;5.18;100.00;101716.25;5071520;28;20256;-73
2022/01/22 06:33:59;;;;;;;4.80;1.50;;;;;;;5.19;100.00;101717.91;5071608;28;20173;-74
2022/01/22 06:36:26;;;;;;;2.43;2.23;;;;;;;5.20;100.00;101721.44;5071488;28;20175;-74
2022/01/22 06:38:58;;;;;;;2.30;1.53;;;;;;;5.23;100.00;101734.50;5071554;28;20194;-74
2022/01/22 06:44:09;;;;;;;2.77;1.80;;;;;;;5.21;100.00;101734.75;5071511;28;20220;-74
2022/01/22 06:46:34;;;;;;;1.43;1.33;;;;;;;5.23;100.00;101734.50;5070971;28;20249;-74
2022/01/22 06:48:59;;;;;;;2.10;1.27;;;;;;;5.24;100.00;101728.84;5071285;28;20587;-74
2022/01/22 06:51:27;;;;;;;1.00;0.90;;;;;;;5.25;100.00;101735.06;5069848;28;20186;-74
2022/01/22 06:53:53;;;;;;;1.23;1.10;;;;;;;5.24;100.00;101745.09;5071315;28;20646;-74
2022/01/22 06:56:20;;;;;;;1.13;1.00;;;;;;;5.25;100.00;101735.91;5070800;28;20162;-74
2022/01/22 06:58:47;;;;;;;1.70;1.00;;;;;;;5.26;100.00;101744.84;5071142;28;20173;-74
2022/01/22 07:01:13;;;;;;;1.33;1.10;;;;;;;5.25;100.00;101749.44;5070726;28;20166;-74
2022/01/22 07:03:38;;;;;;;2.53;1.23;;;;;;;5.28;100.00;101753.56;5070833;28;20235;-74
2022/01/22 07:06:04;;;;;;;1.17;1.07;;;;;;;5.28;100.00;101746.25;5070771;28;20202;-73
2022/01/22 07:08:29;;;;;;;1.23;0.93;;;;;;;5.29;100.00;101755.19;5069555;28;20206;-74
2022/01/22 07:10:55;;;;;;;1.23;1.10;;;;;;;5.30;100.00;101752.25;5070398;28;20170;-74
2022/01/22 07:13:20;;;;;;;2.13;1.30;;;;;;;5.31;100.00;101737.63;5070789;28;20202;-74
2022/01/22 07:15:45;;;;;;;1.43;0.87;;;;;;;5.34;100.00;101766.13;5069319;28;20173;-74
2022/01/22 07:18:13;;;;;;;1.67;1.10;;;;;;;5.34;100.00;101760.69;5069276;28;20703;-74
2022/01/22 07:20:43;;;;;;;1.43;1.33;;;;;;;5.35;100.00;101767.75;5070327;28;20265;-74
2022/01/22 07:23:17;;;;;;;2.00;1.00;;;;;;;5.33;100.00;101770.72;5069052;28;20539;-74
2022/01/22 07:25:44;;;;;;;1.70;0.90;;;;;;;5.34;100.00;101769.63;5069752;28;20179;-74
2022/01/22 07:28:11;;;;;;;3.03;1.43;;;;;;;5.33;100.00;101765.28;5070296;28;20216;-74
2022/01/22 07:30:38;;;;;;;1.13;0.90;;;;;;;5.32;100.00;101770.97;5070411;28;20171;-74
2022/01/22 07:33:03;;;;;;;1.70;1.60;;;;;;;5.33;100.00;101778.84;5068934;28;20282;-74
2022/01/22 07:35:28;;;;;;;2.77;1.53;;;;;;;5.31;100.00;101772.84;5070024;28;20178;-76
2022/01/22 07:37:54;;;;;;;1.43;1.30;;;;;;;5.31;100.00;101769.31;5070061;28;20652;-73
2022/01/22 07:40:19;;;;;;;2.60;1.67;;;;;;;5.32;100.00;101782.63;5067822;28;20182;-73
2022/01/22 07:42:45;;;;;;;4.10;1.93;;;;;;;5.33;100.00;101778.84;5078146;28;20200;-73
2022/01/22 07:45:10;;;;;;;2.47;1.50;;;;;;;5.30;100.00;101768.50;5080881;28;20529;-73
2022/01/22 07:47:36;;;;;;;2.47;1.63;;;;;;;5.28;100.00;101780.66;5077862;28;20178;-75
2022/01/22 07:50:04;;;;;;;2.33;1.80;;;;;;;5.28;100.00;101778.75;5070480;28;20174;-73
2022/01/22 07:52:29;;;;;;;3.80;2.63;;;;;;;5.27;100.00;101784.44;5070311;28;20568;-73
2022/01/22 07:54:54;;;;;;;4.03;3.57;;;;;;;5.28;100.00;101791.47;5068919;28;20187;-73
2022/01/22 07:57:20;;;;;;;2.63;2.40;;;;;;;5.30;100.00;101784.75;5069270;28;20171;-73
2022/01/22 07:59:45;;;;;;;4.00;3.30;;;;;;;5.30;100.00;101794.78;5069114;28;20183;-73
2022/01/22 08:02:10;;;;;;;3.77;3.47;;;;;;;5.31;100.00;101777.44;5069183;28;20291;-73
2022/01/22 08:04:36;;;;;;;7.57;3.60;;;;;;;5.31;100.00;101780.16;5070215;28;20175;-74
2022/01/22 08:07:03;;;;;;;2.63;2.23;;;;;;;5.29;100.00;101780.41;5070394;28;20174;-73
2022/01/22 08:09:29;;;;;;;3.60;3.17;;;;;;;5.27;100.00;101779.81;5070166;28;20167;-73
2022/01/22 08:11:55;;;;;;;6.87;3.67;;;;;;;5.29;100.00;101777.69;5069039;28;20688;-74
2022/01/22 08:14:20;;;;;;;2.23;1.83;;;;;;;5.29;100.00;101763.31;5071130;28;20182;-73
2022/01/22 08:16:49;;;;;;;4.70;3.50;;;;;;;5.30;100.00;101771.22;5074176;28;20175;-73
2022/01/22 08:19:16;;;;;;;3.70;2.30;;;;;;;5.30;100.00;101770.38;5073014;28;20193;-73
2022/01/22 08:21:45;;;;;;;4.80;3.43;;;;;;;5.27;100.00;101744.59;5072856;28;20665;-73
2022/01/22 08:24:11;;;;;;;3.00;2.23;;;;;;;5.28;100.00;101767.09;5074095;28;20205;-75
2022/01/22 08:26:43;;;;;;;4.57;3.57;;;;;;;5.27;100.00;101770.88;5072878;28;20289;-76
2022/01/22 08:29:09;;;;;;;3.47;3.10;;;;;;;5.29;100.00;101771.44;5074062;28;20201;-75
2022/01/22 08:36:46;;;;;;;3.67;3.13;;;;;;;5.30;100.00;101778.50;5073715;28;20186;-78
2022/01/22 08:39:14;;;;;;;3.40;2.90;;;;;;;5.27;100.00;101769.00;5073924;28;20171;-75
2022/01/22 08:41:40;;;;;;;2.53;2.13;;;;;;;5.30;100.00;101770.38;5073943;28;20171;-76
2022/01/22 08:44:05;;;;;;;2.77;1.90;;;;;;;5.30;100.00;101783.94;5073713;28;20181;-77
2022/01/22 08:46:34;;;;;;;1.30;1.10;;;;;;;5.30;100.00;101782.03;5073494;28;20574;-75
2022/01/22 08:48:59;;;;;;;2.33;1.57;;;;;;;5.30;100.00;101787.47;5073570;28;20185;-73
2022/01/22 08:51:25;;;;;;;3.03;2.10;;;;;;;5.29;100.00;101785.00;5073619;28;20174;-73
2022/01/22 08:53:50;;;;;;;3.43;2.60;;;;;;;5.29;100.00;101788.53;5073503;28;20304;-73
2022/01/22 08:56:16;;;;;;;5.13;3.13;;;;;;;5.27;100.00;101790.66;5072045;28;20619;-73
2022/01/22 08:58:42;;;;;;;5.37;2.97;;;;;;;5.30;100.00;101784.75;5073575;28;20537;-73
2022/01/22 09:01:07;;;;;;;5.30;2.47;;;;;;;5.30;100.00;101801.00;5073320;28;20171;-72
2022/01/22 09:03:33;;;;;;;1.80;1.40;;;;;;;5.30;100.00;101803.72;5073409;28;20174;-73
2022/01/22 09:05:59;;;;;;;3.13;1.87;;;;;;;5.30;100.00;101801.00;5073244;28;20460;-72
2022/01/22 09:08:26;;;;;;;3.80;2.87;;;;;;;5.32;100.00;101803.47;5073307;28;20166;-73
2022/01/22 09:10:53;;;;;;;5.30;2.53;;;;;;;5.34;100.00;101813.00;5073149;28;20174;-73
2022/01/22 09:13:24;;;;;;;5.10;3.03;;;;;;;5.33;100.00;101805.94;5073553;28;20293;-73
2022/01/22 09:15:53;;;;;;;2.27;1.50;;;;;;;5.33;100.00;101810.53;5073063;28;20171;-73
2022/01/22 09:18:19;;;;;;;3.97;2.77;;;;;;;5.31;100.00;101812.66;5073133;28;20639;-73
2022/01/22 09:21:02;;;;;;;3.47;3.07;;;;;;;5.35;100.00;101819.25;5072878;28;20220;-73
2022/01/22 09:23:29;;;;;;;3.43;1.87;;;;;;;5.34;100.00;101821.13;5071730;28;20191;-73
2022/01/22 09:25:55;;;;;;;1.17;1.03;;;;;;;5.32;100.00;101822.44;5071606;28;20166;-74
2022/01/22 09:28:21;;;;;;;3.97;1.70;;;;;;;5.30;100.00;101819.97;5071285;28;20263;-73
2022/01/22 09:30:47;;;;;;;0.73;0.70;;;;;;;5.30;100.00;101808.31;5071416;28;20175;-73
2022/01/22 09:33:13;;;;;;;1.40;0.50;;;;;;;5.27;100.00;101825.88;5072681;28;20313;-73
2022/01/22 09:35:38;;;;;;;1.97;1.77;;;;;;;5.26;100.00;101802.56;5070979;28;20265;-73
2022/01/22 09:38:04;;;;;;;1.97;1.47;;;;;;;5.27;100.00;101819.66;5072041;28;20626;-73
2022/01/22 09:40:30;;;;;;;5.67;1.30;;;;;;;5.25;100.00;101833.44;5071326;28;20228;-73
2022/01/22 09:42:58;;;;;;;2.17;1.63;;;;;;;5.28;100.00;101819.41;5072645;28;20257;-74
2022/01/22 09:45:24;;;;;;;2.07;1.50;;;;;;;5.27;100.00;101817.75;5072215;28;20569;-73
2022/01/22 09:47:50;;;;;;;1.33;0.90;;;;;;;5.30;100.00;101830.00;5072736;28;20205;-72
2022/01/22 09:50:17;;;;;;;6.73;1.53;;;;;;;5.29;100.00;101828.34;5072326;28;20178;-72
2022/01/22 09:52:45;;;;;;;4.97;2.00;;;;;;;5.30;100.00;101830.81;5071041;28;20219;-72
2022/01/22 09:55:11;;;;;;;2.13;1.30;;;;;;;5.31;100.00;101831.63;5070792;28;20316;-72
2022/01/22 09:57:37;;;;;;;5.10;1.33;;;;;;;5.33;100.00;101835.75;5072247;28;20578;-73
2022/01/22 10:00:09;;;;;;;2.03;1.93;;;;;;;5.33;100.00;101830.31;5072297;28;20229;-72
2022/01/22 10:02:40;;;;;;;1.33;1.30;;;;;;;5.35;100.00;101827.38;5070722;28;20182;-73
2022/01/22 10:05:24;;;;;;;2.17;1.83;;;;;;;5.40;100.00;101837.50;5071867;28;20197;-73
2022/01/22 10:07:52;;;;;;;2.33;2.10;;;;;;;5.42;100.00;101840.78;5070756;28;20177;-73
2022/01/22 10:10:18;;;;;;;9.10;1.07;;;;;;;5.44;100.00;101841.38;5072223;28;20530;-72
2022/01/22 10:12:52;;;;;;;2.57;1.27;;;;;;;5.42;100.00;101857.06;5070871;28;20206;-72
2022/01/22 10:15:20;;;;;;;2.70;1.60;;;;;;;5.40;100.00;101849.16;5070393;28;20245;-73
2022/01/22 10:17:49;;;;;;;1.63;1.53;;;;;;;5.40;100.00;101849.16;5071806;28;20182;-73
2022/01/22 10:20:32;;;;;;;1.07;1.07;;;;;;;5.42;100.00;101851.63;5071777;28;20201;-72
2022/01/22 10:23:23;;;;;;;2.70;1.93;;;;;;;5.46;100.00;101850.06;5070411;28;20652;-72
2022/01/22 10:25:56;;;;;;;3.20;2.40;;;;;;;5.48;100.00;101856.06;5071496;28;20537;-73
2022/01/22 10:28:23;;;;;;;3.20;2.30;;;;;;;5.52;100.00;101846.41;5071567;28;20577;-72
2022/01/22 10:30:58;;;;;;;2.63;2.43;;;;;;;5.55;100.00;101846.75;5071498;28;20437;-73
2022/01/22 10:33:31;;;;;;;1.63;1.53;;;;;;;5.58;100.00;101850.84;5071666;28;20206;-72
2022/01/22 10:36:11;;;;;;;12.17;2.57;;;;;;;5.64;100.00;101852.56;5069900;28;20179;-73
2022/01/22 10:38:50;;;;;;;1.83;1.40;;;;;;;5.67;100.00;101854.81;5071320;28;20166;-73
2022/01/22 10:41:31;;;;;;;1.57;1.43;;;;;;;5.71;100.00;101866.81;5071379;28;20183;-72
2022/01/22 10:43:56;;;;;;;1.83;1.53;;;;;;;5.72;100.00;101860.31;5071508;28;20224;-72
2022/01/22 10:49:13;;;;;;;1.23;1.13;;;;;;;5.75;100.00;101862.53;5071664;28;20175;-73
2022/01/22 10:51:56;;;;;;;1.57;1.47;;;;;;;5.80;100.00;101864.53;5071288;28;20162;-73
2022/01/22 10:54:29;;;;;;;2.20;1.70;;;;;;;5.81;100.00;101860.75;5071275;28;20433;-73
2022/01/22 10:57:12;;;;;;;1.50;1.17;;;;;;;5.87;100.00;101865.19;5069539;28;20174;-73
2022/01/22 10:59:50;;;;;;;1.13;1.07;;;;;;;5.87;100.00;101866.00;5070124;28;20252;-73
2022/01/22 11:02:19;;;;;;;2.80;1.27;;;;;;;5.90;100.00;101867.44;5069759;28;20182;-73
2022/01/22 11:04:45;;;;;;;2.03;1.83;;;;;;;5.93;100.00;101873.22;5070755;28;20188;-73
2022/01/22 11:07:19;;;;;;;3.87;1.00;;;;;;;5.96;100.00;101874.63;5070946;28;20228;-73
2022/01/22 11:09:45;;;;;;;1.17;0.70;;;;;;;5.85;100.00;101879.00;5069667;28;20702;-72
2022/01/22 11:12:11;;;;;;;0.83;0.53;;;;;;;5.82;100.00;101882.19;5070968;28;20272;-73
2022/01/22 11:14:38;;;;;;;0.20;0.20;;;;;;;5.82;100.00;101878.66;5070817;28;20174;-73
2022/01/22 11:17:06;;;;;;;0.80;0.40;;;;;;;5.80;100.00;101880.81;5070728;28;20183;-73
2022/01/22 11:19:33;;;;;;;0.23;0.20;;;;;;;5.83;100.00;101880.31;5070773;28;20181;-73
2022/01/22 11:22:18;;;;;;;0.90;0.70;;;;;;;5.81;100.00;101885.97;5070908;28;20190;-72
2022/01/22 11:24:46;;;;;;;0.10;0.10;;;;;;;5.78;100.00;101877.50;5069185;28;20281;-72
2022/01/22 11:27:18;;;;;;;0.60;0.53;;;;;;;5.73;100.00;101877.41;5070799;28;20181;-73
2022/01/22 11:29:51;;;;;;;0.50;0.40;;;;;;;5.74;100.00;101885.31;5070823;28;20443;-73
2022/01/22 11:32:21;;;;;;;0.90;0.90;;;;;;;5.77;100.00;101878.56;5070971;28;20191;-73
2022/01/22 11:34:49;;;;;;;1.20;1.10;;;;;;;5.73;100.00;101872.00;5070580;28;20166;-72
2022/01/22 11:37:27;;;;;;;0.57;0.57;;;;;;;5.72;100.00;101878.47;5070285;28;20201;-73
2022/01/22 11:40:19;;;;;;;0.27;0.27;;;;;;;5.62;100.00;101866.38;5070923;28;20186;-72
2022/01/22 11:43:02;;;;;;;0.40;0.30;;;;;;;5.55;100.00;101876.56;5071133;28;20163;-72
2022/01/22 11:45:34;;;;;;;8.73;1.10;;;;;;;5.59;100.00;101877.72;5075071;28;20174;-72
2022/01/22 11:48:26;;;;;;;0.87;0.57;;;;;;;5.61;100.00;101878.28;5074444;28;20259;-72
2022/01/22 11:51:16;;;;;;;0.70;0.70;;;;;;;5.63;100.00;101886.16;5061803;28;20503;-73
2022/01/22 11:53:54;;;;;;;0.93;0.87;;;;;;;5.66;100.00;101880.28;5069222;28;20233;-72
2022/01/22 11:56:27;;;;;;;1.20;0.83;;;;;;;5.64;100.00;101877.81;5069363;28;20653;-72
2022/01/22 11:58:55;;;;;;;1.40;1.30;;;;;;;5.62;100.00;101884.53;5070584;28;20170;-72
2022/01/22 12:01:45;;;;;;;4.07;2.53;;;;;;;5.65;100.00;101871.34;5070575;28;20180;-73
2022/01/22 12:04:16;;;;;;;0.87;0.87;;;;;;;5.63;100.00;101886.16;5069314;28;20245;-72
2022/01/22 12:07:00;;;;;;;1.03;0.93;;;;;;;5.58;100.00;101881.50;5068732;28;20171;-72
2022/01/22 12:09:26;;;;;;;1.13;0.60;;;;;;;5.56;100.00;101885.50;5070176;28;20175;-72
2022/01/22 12:14:57;;;;;;;0.97;0.90;;;;;;;5.62;100.00;101882.63;5070075;28;20182;-72
2022/01/22 12:17:59;;;;;;;2.23;1.50;;;;;;;5.65;100.00;101890.31;5068942;28;20655;-72
2022/01/22 12:23:04;;;;;;;1.30;0.63;;;;;;;5.61;100.00;101883.69;5070001;28;20568;-72
2022/01/22 12:25:30;;;;;;;1.23;1.10;;;;;;;5.66;100.00;101891.13;5069913;28;20262;-72
2022/01/22 12:27:56;;;;;;;0.73;0.73;;;;;;;5.68;100.00;101880.88;5069976;28;20266;-72
2022/01/22 12:30:48;;;;;;;0.80;0.80;;;;;;;5.68;100.00;101887.09;5069970;28;20174;-72
2022/01/22 12:33:28;;;;;;;0.97;0.93;;;;;;;5.72;100.00;101881.19;5069935;28;20230;-72
2022/01/22 12:36:02;;;;;;;1.00;0.90;;;;;;;5.77;100.00;101894.84;5068770;28;20166;-72
2022/01/22 12:41:46;;;;;;;1.30;1.20;;;;;;;5.83;100.00;101881.13;5069859;28;20647;-72
2022/01/22 12:44:25;;;;;;;1.07;0.90;;;;;;;5.89;100.00;101884.75;5069726;28;20174;-73
2022/01/22 12:46:52;;;;;;;0.73;0.53;;;;;;;5.96;100.00;101896.31;5069975;28;20209;-73
2022/01/22 12:49:20;;;;;;;2.27;1.03;;;;;;;5.99;100.00;101893.09;5070050;28;20565;-72
2022/01/22 12:51:46;;;;;;;0.93;0.87;;;;;;;5.99;100.00;101893.09;5068641;28;20631;-72
2022/01/22 12:54:11;;;;;;;1.80;1.20;;;;;;;5.97;100.00;101890.63;5068675;28;20201;-72
2022/01/22 12:56:49;;;;;;;1.47;1.20;;;;;;;6.00;100.00;101894.75;5069965;28;20182;-73
2022/01/22 12:59:15;;;;;;;1.17;0.97;;;;;;;6.03;100.00;101888.00;5068847;28;20186;-72
2022/01/22 13:01:46;;;;;;;1.40;1.17;;;;;;;6.09;100.00;101896.00;5072577;28;20205;-73
2022/01/22 13:04:12;;;;;;;0.90;0.90;;;;;;;6.06;100.00;101888.31;5072076;28;20218;-73
2022/01/22 13:06:48;;;;;;;0.70;0.70;;;;;;;6.04;100.00;101889.66;5071858;28;20217;-73
2022/01/22 13:09:14;;;;;;;1.00;1.00;;;;;;;6.03;100.00;101896.13;5073229;28;20253;-73
2022/01/22 13:11:47;;;;;;;1.50;1.10;;;;;;;6.03;100.00;101883.41;5070889;28;20178;-73
2022/01/22 13:14:18;;;;;;;0.60;0.60;;;;;;;6.10;100.00;101886.78;5071171;28;20637;-73
2022/01/22 13:16:53;;;;;;;1.60;1.50;;;;;;;6.11;100.00;101882.19;5073072;28;20171;-72
2022/01/22 13:19:20;;;;;;;2.67;1.50;;;;;;;6.09;100.00;101882.44;5073158;28;20193;-73